Forside
METAR-TAF:

METAR-TAF

Lufthavne :

Volk Field Air National Guard Base

Camp Douglas, Wisconsin, USA

Breddekreds: 43-56N, længdekreds: 090-16W, højde: 277 m

Aktuelle vejr

Denne rapport blev lavet for 52 minutter siden, kl. 01:56 UTC
Vind 3 kt fra sydsydøst
Temperatur 23°C
Fugtighed 78%
Tryk 1012 hPa
Sigt: 16.1 km
skyfri

METAR: KVOK 250156Z AUTO 15003KT 10SM CLR 23/19 A2987 RMK AO2 SLP114 T02320189

Tid: 21:48 (02:48 UTC)


TAF: fraværende

Vejrobservationer og prognoser fra mere end 4000 lufthavne (METAR og TAF).

De gule og røde prikker repræsenterer de meteorologiske stationer.

Flyt musen over at se navnet på stationen.

Så klik over at se vejr observationer og prognoser.

At skifte det kort: Klik på de grønne knapper med et sort kors for at zoome ind; på den grønne knap med en bindestreg for at zoome ud; eller på de grønne pile for tilstødende kort.


METAR-TAF: